createdAt,value
2019-01-23T00:02:01.927Z,96.67
2019-01-23T00:04:32.770Z,96.57
2019-01-23T00:07:03.855Z,96.53
2019-01-23T00:09:34.679Z,96.71
2019-01-23T00:12:05.674Z,96.84
2019-01-23T00:14:36.523Z,96.90
2019-01-23T00:17:07.410Z,96.70
2019-01-23T00:19:38.323Z,96.53
2019-01-23T00:22:09.244Z,97.05
2019-01-23T00:24:40.195Z,97.02
2019-01-23T00:27:11.915Z,96.85
2019-01-23T00:29:42.803Z,96.95
2019-01-23T00:32:13.651Z,97.11
2019-01-23T00:34:44.500Z,97.46
2019-01-23T00:37:15.375Z,97.39
2019-01-23T00:39:46.237Z,97.27
2019-01-23T00:42:17.121Z,97.09
2019-01-23T00:44:47.987Z,96.89
2019-01-23T00:47:18.829Z,96.85
2019-01-23T00:49:49.771Z,97.09
2019-01-23T00:52:20.605Z,97.01
2019-01-23T00:54:51.451Z,96.68
2019-01-23T00:57:22.303Z,96.80
2019-01-23T00:59:53.219Z,96.98
2019-01-23T01:02:24.434Z,97.14
2019-01-23T01:04:55.372Z,97.30
2019-01-23T01:07:26.285Z,97.60
2019-01-23T01:09:57.198Z,97.67
2019-01-23T01:12:28.060Z,97.79
2019-01-23T01:14:58.895Z,97.93
2019-01-23T01:17:29.831Z,97.75
2019-01-23T01:20:00.708Z,97.74
2019-01-23T01:22:31.573Z,98.03
2019-01-23T01:25:02.492Z,98.21
2019-01-23T01:27:33.360Z,98.27
2019-01-23T01:30:18.766Z,97.97
2019-01-23T01:32:49.696Z,98.07
2019-01-23T01:35:20.575Z,98.14
2019-01-23T01:37:51.474Z,98.06
2019-01-23T01:40:22.398Z,98.06
2019-01-23T01:42:53.241Z,98.03
2019-01-23T01:45:24.211Z,98.29
2019-01-23T01:47:55.004Z,98.17
2019-01-23T01:50:25.983Z,98.25
2019-01-23T01:52:56.936Z,98.39
2019-01-23T01:55:27.773Z,98.23
2019-01-23T01:58:00.899Z,98.02
2019-01-23T02:00:31.824Z,98.10
2019-01-23T02:03:02.765Z,98.14
2019-01-23T02:05:33.712Z,98.13
2019-01-23T02:08:04.703Z,98.03
2019-01-23T02:10:35.618Z,97.93
2019-01-23T02:13:06.498Z,97.86
2019-01-23T02:15:37.474Z,97.84
2019-01-23T02:18:08.340Z,97.97
2019-01-23T02:20:39.205Z,97.98
2019-01-23T02:23:10.984Z,97.86
2019-01-23T02:25:41.956Z,97.55
2019-01-23T02:28:12.815Z,97.36
2019-01-23T02:30:43.711Z,97.26
2019-01-23T02:33:14.573Z,97.23
2019-01-23T02:35:45.448Z,97.44
2019-01-23T02:38:16.321Z,97.51
2019-01-23T02:40:47.169Z,97.41
2019-01-23T02:43:18.027Z,97.12
2019-01-23T02:45:48.880Z,97.34
2019-01-23T02:48:19.734Z,97.55
2019-01-23T02:50:50.583Z,97.34
2019-01-23T02:53:21.438Z,97.12
2019-01-23T02:55:52.355Z,97.17
2019-01-23T02:58:23.242Z,97.23
2019-01-23T03:00:54.077Z,97.16
2019-01-23T03:03:24.941Z,97.18
2019-01-23T03:05:55.922Z,97.14
2019-01-23T03:08:26.745Z,97.20
2019-01-23T03:10:57.622Z,97.51
2019-01-23T03:13:28.472Z,97.63
2019-01-23T03:15:59.336Z,97.99
2019-01-23T03:18:30.194Z,98.01
2019-01-23T03:21:01.054Z,97.73
2019-01-23T03:23:32.081Z,97.74
2019-01-23T03:26:02.956Z,97.76
2019-01-23T03:28:33.925Z,97.96
2019-01-23T03:31:04.800Z,97.78
2019-01-23T03:33:43.395Z,97.57
2019-01-23T03:36:17.859Z,97.45
2019-01-23T03:38:48.718Z,97.52
2019-01-23T03:41:19.562Z,97.87
2019-01-23T03:43:53.821Z,97.63
2019-01-23T03:46:24.671Z,97.75
2019-01-23T03:48:55.568Z,98.05
2019-01-23T03:51:26.431Z,97.69
2019-01-23T03:53:57.321Z,97.75
2019-01-23T03:56:28.530Z,97.68
2019-01-23T03:58:59.405Z,97.68
2019-01-23T04:01:30.349Z,97.64
2019-01-23T04:04:01.225Z,97.53
2019-01-23T04:06:32.086Z,97.31
2019-01-23T04:09:03.198Z,97.22
2019-01-23T04:11:34.038Z,97.37
2019-01-23T04:14:05.690Z,97.30
2019-01-23T04:16:36.537Z,97.29
2019-01-23T04:19:07.435Z,97.11
2019-01-23T04:21:38.388Z,97.06
2019-01-23T04:24:09.330Z,97.03
2019-01-23T04:26:40.195Z,96.89
2019-01-23T04:29:11.048Z,96.63
2019-01-23T04:31:44.984Z,96.59
2019-01-23T04:34:15.784Z,96.68
2019-01-23T04:36:46.724Z,96.69
2019-01-23T04:39:17.557Z,96.66
2019-01-23T04:41:48.467Z,96.83
2019-01-23T04:44:19.313Z,97.09
2019-01-23T04:46:50.199Z,97.24
2019-01-23T04:49:21.021Z,97.29
2019-01-23T04:51:53.532Z,97.55
2019-01-23T04:54:24.399Z,97.71
2019-01-23T04:56:55.272Z,97.73
2019-01-23T04:59:26.127Z,97.73
2019-01-23T05:01:57.007Z,97.78
2019-01-23T05:04:27.857Z,97.99
2019-01-23T05:06:58.709Z,98.06
2019-01-23T05:09:29.581Z,97.08
2019-01-23T05:12:00.433Z,96.78
2019-01-23T05:14:31.274Z,97.08
2019-01-23T05:17:08.548Z,97.13
2019-01-23T05:19:41.186Z,97.43
2019-01-23T05:22:12.114Z,97.04
2019-01-23T05:24:42.979Z,96.80
2019-01-23T05:27:14.014Z,96.71
2019-01-23T05:29:44.838Z,97.04
2019-01-23T05:32:15.685Z,96.96
2019-01-23T05:34:46.564Z,96.93
2019-01-23T05:37:17.470Z,96.73
2019-01-23T05:39:48.326Z,96.79
2019-01-23T05:42:19.175Z,96.72
2019-01-23T05:44:50.052Z,97.08
2019-01-23T05:47:20.884Z,96.76
2019-01-23T05:49:51.746Z,96.59
2019-01-23T05:52:22.607Z,96.44
2019-01-23T05:54:53.480Z,96.76
2019-01-23T05:57:24.382Z,96.57
2019-01-23T06:00:02.122Z,96.62
2019-01-23T06:02:27.968Z,96.33
2019-01-23T06:04:58.831Z,96.14
2019-01-23T06:07:29.661Z,95.92
2019-01-23T06:10:00.620Z,95.90
2019-01-23T06:12:31.461Z,95.86
2019-01-23T06:15:02.304Z,95.67
2019-01-23T06:17:33.164Z,95.67
2019-01-23T06:20:07.469Z,95.75
2019-01-23T06:22:38.306Z,95.77
2019-01-23T06:25:09.509Z,95.96
2019-01-23T06:27:40.380Z,96.02
2019-01-23T06:30:13.870Z,95.82
2019-01-23T06:32:44.731Z,96.01
2019-01-23T06:35:16.073Z,96.19
2019-01-23T06:37:46.940Z,96.18
2019-01-23T06:40:18.570Z,96.24
2019-01-23T06:42:49.440Z,96.35
2019-01-23T06:45:20.522Z,96.20
2019-01-23T06:47:51.567Z,95.95
2019-01-23T06:50:22.902Z,95.83
2019-01-23T06:52:53.733Z,95.67
2019-01-23T06:55:24.595Z,95.78
2019-01-23T06:57:55.526Z,95.50
2019-01-23T07:00:26.518Z,95.30
2019-01-23T07:02:58.677Z,95.55
2019-01-23T07:05:29.555Z,95.66
2019-01-23T07:08:00.559Z,95.59
2019-01-23T07:10:31.460Z,95.64
2019-01-23T07:13:02.323Z,95.59
2019-01-23T07:15:33.187Z,95.69
2019-01-23T07:18:04.578Z,95.80
2019-01-23T07:20:35.468Z,95.59
2019-01-23T07:23:06.378Z,95.60
2019-01-23T07:25:37.320Z,95.39
2019-01-23T07:28:08.238Z,95.36
2019-01-23T07:30:39.596Z,95.56
2019-01-23T07:33:10.631Z,95.35
2019-01-23T07:35:41.543Z,95.43
2019-01-23T07:38:12.538Z,95.47
2019-01-23T07:40:43.394Z,95.08
2019-01-23T07:43:14.325Z,94.72
2019-01-23T07:45:45.657Z,94.08
2019-01-23T07:48:17.098Z,94.33
2019-01-23T07:50:48.030Z,94.16
2019-01-23T07:53:18.884Z,94.09
2019-01-23T07:55:49.770Z,94.42
2019-01-23T07:58:20.696Z,94.25
2019-01-23T08:00:51.549Z,94.50
2019-01-23T08:03:22.453Z,94.49
2019-01-23T08:05:53.310Z,94.28
2019-01-23T08:08:24.191Z,93.97
2019-01-23T08:10:56.839Z,93.67
2019-01-23T08:13:27.700Z,92.71
2019-01-23T08:15:58.588Z,91.98
2019-01-23T08:18:29.444Z,91.40
2019-01-23T08:21:00.420Z,91.64
2019-01-23T08:23:31.274Z,92.11
2019-01-23T08:26:02.216Z,91.96
2019-01-23T08:28:33.129Z,91.88
2019-01-23T08:31:04.135Z,91.87
2019-01-23T08:33:35.053Z,91.71
2019-01-23T08:36:05.969Z,92.16
2019-01-23T08:38:36.829Z,91.90
2019-01-23T08:41:07.678Z,91.63
2019-01-23T08:43:39.083Z,91.55
2019-01-23T08:46:09.946Z,91.68
2019-01-23T08:48:40.846Z,91.34
2019-01-23T08:51:11.795Z,91.29
2019-01-23T08:53:42.694Z,91.37
2019-01-23T08:56:13.607Z,91.29
2019-01-23T08:58:44.477Z,91.53
2019-01-23T09:01:15.323Z,91.53
2019-01-23T09:03:46.205Z,91.46
2019-01-23T09:06:17.135Z,91.25
2019-01-23T09:08:48.012Z,90.84
2019-01-23T09:11:18.904Z,91.01
2019-01-23T09:13:49.776Z,90.95
2019-01-23T09:16:20.607Z,90.36
2019-01-23T09:18:51.541Z,90.79
2019-01-23T09:21:22.371Z,90.71
2019-01-23T09:23:53.231Z,90.64
2019-01-23T09:26:24.098Z,90.29
2019-01-23T09:28:55.065Z,89.75
2019-01-23T09:31:52.999Z,89.60
2019-01-23T09:34:29.889Z,90.05
2019-01-23T09:37:21.447Z,90.89
2019-01-23T09:40:01.577Z,89.51
2019-01-23T09:42:44.043Z,88.33
2019-01-23T09:45:17.941Z,88.50
2019-01-23T09:47:51.832Z,88.59
2019-01-23T09:50:37.649Z,89.01
2019-01-23T09:53:26.524Z,88.74
2019-01-23T09:55:57.517Z,88.75
2019-01-23T09:58:28.344Z,87.70
2019-01-23T10:01:00.034Z,86.86
2019-01-23T10:03:30.938Z,87.42
2019-01-23T10:06:01.816Z,88.25
2019-01-23T10:08:32.654Z,88.13
2019-01-23T10:11:03.502Z,88.29
2019-01-23T10:13:34.352Z,88.64
2019-01-23T10:16:05.447Z,88.48
2019-01-23T10:18:36.282Z,88.11
2019-01-23T10:21:07.246Z,88.11
2019-01-23T10:23:38.072Z,87.67
2019-01-23T10:26:09.002Z,88.53
2019-01-23T10:28:39.896Z,88.98
2019-01-23T10:31:10.753Z,88.53
2019-01-23T10:33:41.714Z,88.08
2019-01-23T10:36:12.632Z,87.82
2019-01-23T10:38:43.573Z,87.30
2019-01-23T10:41:14.431Z,87.11
2019-01-23T10:43:45.290Z,86.99
2019-01-23T10:46:16.140Z,86.24
2019-01-23T10:48:46.995Z,87.05
2019-01-23T10:51:17.988Z,86.86
2019-01-23T10:53:48.868Z,87.08
2019-01-23T10:56:19.841Z,86.52
2019-01-23T10:58:50.867Z,86.33
2019-01-23T11:01:21.786Z,86.49
2019-01-23T11:03:52.628Z,86.21
2019-01-23T11:06:23.570Z,86.08
2019-01-23T11:08:54.430Z,85.83
2019-01-23T11:11:25.290Z,86.03
2019-01-23T11:13:56.242Z,86.47
2019-01-23T11:16:27.192Z,86.25
2019-01-23T11:18:58.086Z,85.63
2019-01-23T11:21:28.938Z,85.10
2019-01-23T11:23:59.791Z,84.90
2019-01-23T11:26:30.646Z,84.04
2019-01-23T11:29:01.479Z,83.53
2019-01-23T11:31:32.337Z,83.26
2019-01-23T11:34:03.169Z,83.36
2019-01-23T11:36:34.041Z,83.19
2019-01-23T11:39:07.396Z,83.06
2019-01-23T11:41:38.375Z,83.14
2019-01-23T11:44:09.389Z,82.92
2019-01-23T11:46:40.213Z,83.53
2019-01-23T11:49:11.068Z,83.35
2019-01-23T11:51:41.996Z,84.35
2019-01-23T11:54:12.875Z,84.07
2019-01-23T11:56:43.825Z,84.16
2019-01-23T11:59:14.871Z,83.79
2019-01-23T12:01:45.716Z,83.78
2019-01-23T12:04:16.663Z,83.92
2019-01-23T12:06:47.520Z,83.44
2019-01-23T12:09:18.534Z,83.34
2019-01-23T12:11:49.363Z,82.81
2019-01-23T12:14:20.205Z,83.18
2019-01-23T12:16:51.109Z,82.82
2019-01-23T12:19:21.945Z,82.61
2019-01-23T12:21:52.807Z,82.42
2019-01-23T12:24:24.752Z,82.43
2019-01-23T12:26:55.698Z,82.77
2019-01-23T12:29:26.626Z,83.08
2019-01-23T12:31:57.755Z,83.05
2019-01-23T12:34:28.592Z,83.05
2019-01-23T12:36:59.541Z,82.97
2019-01-23T12:39:30.384Z,82.65
2019-01-23T12:42:01.283Z,82.47
2019-01-23T12:44:32.201Z,82.49
2019-01-23T12:47:03.082Z,81.96
2019-01-23T12:49:34.033Z,81.76
2019-01-23T12:52:05.204Z,81.38
2019-01-23T12:54:36.086Z,81.43
2019-01-23T12:57:09.930Z,81.03
2019-01-23T12:59:40.786Z,81.01
2019-01-23T13:02:11.842Z,81.10
2019-01-23T13:04:42.896Z,80.90
2019-01-23T13:07:13.812Z,80.76
2019-01-23T13:09:44.700Z,80.70
2019-01-23T13:12:15.609Z,80.61
2019-01-23T13:14:46.533Z,80.92
2019-01-23T13:17:17.470Z,80.84
2019-01-23T13:19:48.308Z,80.78
2019-01-23T13:22:19.163Z,80.18
2019-01-23T13:24:50.233Z,80.10
2019-01-23T13:27:21.048Z,79.84
2019-01-23T13:29:51.971Z,80.39
2019-01-23T13:32:22.805Z,80.41
2019-01-23T13:34:53.688Z,80.24
2019-01-23T13:37:24.521Z,80.23
2019-01-23T13:39:55.403Z,80.33
2019-01-23T13:42:26.370Z,81.18
2019-01-23T13:44:57.305Z,82.32
2019-01-23T13:47:28.174Z,83.78
2019-01-23T13:49:59.098Z,84.96
2019-01-23T13:52:30.174Z,86.02
2019-01-23T13:55:01.026Z,88.11
2019-01-23T13:57:31.902Z,88.34
2019-01-23T14:00:03.005Z,88.73
2019-01-23T14:02:33.860Z,89.67
2019-01-23T14:05:09.031Z,90.25
2019-01-23T14:07:40.130Z,90.01
2019-01-23T14:10:16.591Z,90.65
2019-01-23T14:12:47.477Z,90.73
2019-01-23T14:15:21.874Z,89.99
2019-01-23T14:17:52.718Z,89.20
2019-01-23T14:20:23.718Z,89.07
2019-01-23T14:22:54.639Z,88.32
2019-01-23T14:25:25.561Z,87.59
2019-01-23T14:27:56.614Z,88.80
2019-01-23T14:30:36.010Z,88.50
2019-01-23T14:33:06.881Z,87.72
2019-01-23T14:35:38.733Z,88.32
2019-01-23T14:38:09.702Z,89.09
2019-01-23T14:40:40.707Z,89.13
2019-01-23T14:43:12.026Z,89.47
2019-01-23T14:45:43.040Z,89.80
2019-01-23T14:48:13.897Z,89.87
2019-01-23T14:50:44.880Z,89.64
2019-01-23T14:53:15.724Z,89.75
2019-01-23T14:55:46.601Z,90.66
2019-01-23T14:58:17.589Z,90.94
2019-01-23T15:00:48.522Z,91.43
2019-01-23T15:03:19.367Z,91.53
2019-01-23T15:05:50.478Z,92.09
2019-01-23T15:08:21.434Z,92.01
2019-01-23T15:10:52.359Z,91.54
2019-01-23T15:13:23.190Z,92.16
2019-01-23T15:15:54.180Z,91.59
2019-01-23T15:18:25.047Z,91.52
2019-01-23T15:20:56.013Z,92.22
2019-01-23T15:23:26.904Z,92.28
2019-01-23T15:25:57.831Z,92.58
2019-01-23T15:28:28.681Z,92.82
2019-01-23T15:30:59.547Z,94.87
2019-01-23T15:33:30.419Z,94.75
2019-01-23T15:36:01.392Z,93.55
2019-01-23T15:38:32.258Z,93.02
2019-01-23T15:41:03.184Z,93.32
2019-01-23T15:43:34.181Z,93.35
2019-01-23T15:46:05.358Z,94.04
2019-01-23T15:48:37.114Z,95.17
2019-01-23T15:51:08.084Z,96.10
2019-01-23T15:53:38.926Z,96.31
2019-01-23T15:56:09.940Z,96.53
2019-01-23T15:58:40.805Z,96.87
2019-01-23T16:01:12.304Z,97.33
2019-01-23T16:03:43.161Z,97.60
2019-01-23T16:06:14.040Z,97.87
2019-01-23T16:08:44.885Z,97.73
2019-01-23T16:11:15.742Z,97.65
2019-01-23T16:13:46.597Z,97.06
2019-01-23T16:16:17.535Z,97.00
2019-01-23T16:18:48.511Z,97.41
2019-01-23T16:21:19.428Z,97.28
2019-01-23T16:23:50.406Z,97.53
2019-01-23T16:26:21.317Z,97.62
2019-01-23T16:28:53.179Z,97.38
2019-01-23T16:31:24.058Z,97.43
2019-01-23T16:33:54.905Z,98.18
2019-01-23T16:36:25.768Z,97.97
2019-01-23T16:38:56.630Z,98.20
2019-01-23T16:41:27.476Z,98.07
2019-01-23T16:43:59.332Z,98.07
2019-01-23T16:46:30.167Z,97.94
2019-01-23T16:49:01.027Z,98.03
2019-01-23T16:51:31.943Z,97.95
2019-01-23T16:54:02.903Z,97.81
2019-01-23T16:56:33.912Z,97.77
2019-01-23T16:59:05.371Z,97.63
2019-01-23T17:01:36.372Z,98.04
2019-01-23T17:04:07.332Z,98.15
2019-01-23T17:06:38.252Z,98.07
2019-01-23T17:09:09.310Z,98.00
2019-01-23T17:11:40.178Z,97.95
2019-01-23T17:14:11.136Z,98.17
2019-01-23T17:16:58.960Z,98.23
2019-01-23T17:19:30.120Z,98.06
2019-01-23T17:22:00.979Z,98.25
2019-01-23T17:24:31.872Z,98.18
2019-01-23T17:27:02.741Z,98.49
2019-01-23T17:29:33.739Z,98.38
2019-01-23T17:32:04.747Z,98.50
2019-01-23T17:34:35.607Z,98.99
2019-01-23T17:37:06.494Z,99.05
2019-01-23T17:39:37.319Z,98.47
2019-01-23T17:42:08.429Z,98.40
2019-01-23T17:44:39.255Z,98.73
2019-01-23T17:47:10.269Z,98.91
2019-01-23T17:49:41.177Z,98.66
2019-01-23T17:52:12.068Z,98.77
2019-01-23T17:54:42.911Z,99.28
2019-01-23T17:57:13.946Z,100.00
2019-01-23T17:59:44.887Z,100.00
2019-01-23T18:02:15.767Z,100.00
2019-01-23T18:04:46.768Z,100.00
2019-01-23T18:07:17.732Z,100.00
2019-01-23T18:09:48.670Z,100.00
2019-01-23T18:12:19.607Z,100.00
2019-01-23T18:14:50.474Z,100.00
2019-01-23T18:17:23.412Z,100.00
2019-01-23T18:19:54.411Z,100.00
2019-01-23T18:22:25.313Z,100.00
2019-01-23T18:24:56.202Z,100.00
2019-01-23T18:27:27.295Z,100.00
2019-01-23T18:29:58.272Z,100.00
2019-01-23T18:32:29.307Z,100.00
2019-01-23T18:35:19.579Z,100.00
2019-01-23T18:37:53.479Z,100.00
2019-01-23T18:40:43.834Z,100.00
2019-01-23T18:43:35.878Z,100.00
2019-01-23T18:46:38.351Z,100.00
2019-01-23T18:49:18.369Z,100.00
2019-01-23T18:51:52.497Z,100.00
2019-01-23T18:54:23.373Z,100.00
2019-01-23T18:56:54.275Z,100.00
2019-01-23T18:59:27.356Z,100.00
2019-01-23T19:01:58.327Z,100.00
2019-01-23T19:04:29.225Z,100.00
2019-01-23T19:07:00.179Z,100.00
2019-01-23T19:09:31.106Z,100.00
2019-01-23T19:12:02.047Z,100.00
2019-01-23T19:14:32.997Z,100.00
2019-01-23T19:17:07.415Z,100.00
2019-01-23T19:19:38.851Z,100.00
2019-01-23T19:22:09.806Z,100.00
2019-01-23T19:24:42.265Z,100.00
2019-01-23T19:27:13.181Z,100.00
2019-01-23T19:29:44.066Z,100.00
2019-01-23T19:34:46.038Z,100.00
2019-01-23T19:37:17.000Z,100.00
2019-01-23T19:39:47.868Z,100.00
2019-01-23T19:42:18.750Z,100.00
2019-01-23T19:44:49.608Z,100.00
2019-01-23T19:47:20.568Z,100.00
2019-01-23T19:49:52.912Z,100.00
2019-01-23T19:52:23.799Z,100.00
2019-01-23T19:54:54.652Z,100.00
2019-01-23T19:57:25.532Z,100.00
2019-01-23T19:59:56.395Z,100.00
2019-01-23T20:02:27.299Z,100.00
2019-01-23T20:04:58.236Z,100.00
2019-01-23T20:07:29.104Z,100.00
2019-01-23T20:10:00.010Z,100.00
2019-01-23T20:12:30.873Z,100.00
2019-01-23T20:15:01.759Z,100.00
2019-01-23T20:17:32.723Z,100.00
2019-01-23T20:20:04.626Z,100.00
2019-01-23T20:22:35.571Z,100.00
2019-01-23T20:25:09.874Z,100.00
2019-01-23T20:27:40.730Z,100.00
2019-01-23T20:30:23.996Z,100.00
2019-01-23T20:32:54.922Z,100.00
2019-01-23T20:35:25.867Z,100.00
2019-01-23T20:37:56.910Z,100.00
2019-01-23T20:40:27.790Z,100.00
2019-01-23T20:42:58.648Z,100.00
2019-01-23T20:45:29.660Z,100.00
2019-01-23T20:48:00.574Z,100.00
2019-01-23T20:50:31.926Z,100.00
2019-01-23T20:53:02.788Z,100.00
2019-01-23T20:55:33.813Z,100.00
2019-01-23T20:58:04.937Z,100.00
2019-01-23T21:00:35.937Z,100.00
2019-01-23T21:03:06.959Z,100.00
2019-01-23T21:05:37.908Z,100.00
2019-01-23T21:08:08.856Z,100.00
2019-01-23T21:10:39.793Z,100.00
2019-01-23T21:13:10.841Z,100.00
2019-01-23T21:15:41.711Z,100.00
2019-01-23T21:18:12.848Z,100.00
2019-01-23T21:20:43.788Z,100.00
2019-01-23T21:23:14.719Z,100.00
2019-01-23T21:25:45.620Z,100.00
2019-01-23T21:28:16.526Z,100.00
2019-01-23T21:30:47.472Z,100.00
2019-01-23T21:33:18.310Z,100.00
2019-01-23T21:35:49.592Z,100.00
2019-01-23T21:38:20.465Z,100.00
2019-01-23T21:40:51.371Z,100.00
2019-01-23T21:43:22.304Z,100.00
2019-01-23T21:45:53.192Z,100.00
2019-01-23T21:48:24.042Z,100.00
2019-01-23T21:50:54.915Z,100.00
2019-01-23T21:53:25.859Z,100.00
2019-01-23T21:55:56.823Z,100.00
2019-01-23T21:58:27.674Z,100.00
2019-01-23T22:00:58.619Z,100.00
2019-01-23T22:03:29.487Z,100.00
2019-01-23T22:06:00.515Z,100.00
2019-01-23T22:08:31.374Z,100.00
2019-01-23T22:11:02.292Z,100.00
2019-01-23T22:13:33.144Z,100.00
2019-01-23T22:16:04.070Z,100.00
2019-01-23T22:18:34.998Z,100.00
2019-01-23T22:21:05.849Z,100.00
2019-01-23T22:23:36.780Z,100.00
2019-01-23T22:26:07.777Z,100.00
2019-01-23T22:28:38.676Z,100.00
2019-01-23T22:31:09.555Z,100.00
2019-01-23T22:33:40.476Z,100.00
2019-01-23T22:36:11.421Z,100.00
2019-01-23T22:38:42.282Z,100.00
2019-01-23T22:41:13.219Z,100.00
2019-01-23T22:43:44.096Z,100.00
2019-01-23T22:46:15.037Z,100.00
2019-01-23T22:48:45.936Z,100.00
2019-01-23T22:51:16.837Z,100.00
2019-01-23T22:53:47.716Z,100.00
2019-01-23T22:56:18.574Z,100.00
2019-01-23T22:58:49.441Z,99.98
2019-01-23T23:01:21.857Z,99.96
2019-01-23T23:03:52.805Z,99.94
2019-01-23T23:06:23.785Z,100.00
2019-01-23T23:08:54.917Z,99.86
2019-01-23T23:11:25.769Z,99.71
2019-01-23T23:13:56.603Z,99.58
2019-01-23T23:16:27.472Z,99.52
2019-01-23T23:18:58.341Z,99.50
2019-01-23T23:21:29.221Z,99.55
2019-01-23T23:24:00.110Z,99.59
2019-01-23T23:26:30.997Z,99.62
2019-01-23T23:29:02.501Z,99.61
2019-01-23T23:31:33.556Z,99.42
2019-01-23T23:34:09.895Z,99.26
2019-01-23T23:36:37.700Z,99.14
2019-01-23T23:39:09.073Z,99.13
2019-01-23T23:41:42.700Z,99.08
2019-01-23T23:44:13.691Z,99.05
2019-01-23T23:46:44.550Z,99.14
2019-01-23T23:49:15.483Z,99.16
2019-01-23T23:51:46.323Z,99.11
2019-01-23T23:54:17.330Z,99.17
2019-01-23T23:56:48.183Z,99.15
2019-01-23T23:59:19.127Z,99.13
